(°C)
17°
18°
19°
20°
21°
22°
24°
(°C)
19°
20°
21°
22°
23°
24°
25°
J
JJZ
JJZ
JJZ
JJZ
J
J
(km/h)
2-5
1-5
2-6
3-7
4-9
6-12
9-17
(mm)
0
0
0
0
0
0
0
(%)
11
2
11
21
31
32
33

Podizanje Sunca

/ -11.9°
sun-icon
UV 7
05:45
20:11
Pun mesec (185°)
21:12
05:58

METAR za Wilmington Manor (KILG)

Vreme Uslovi Temperatura/
Tačka rose
Vetar Vidljivost Prognoza Oblaci Pritisak Promena Neobrađeno
VFR 16.1°C / 15°C 180º 3kt >10km - Few Clouds 12000ft 1008 - KILG 160751Z AUTO 18003KT 8SM FEW120 16/15 A2978 RMK AO2 SLP082 T01610150
VFR 15.6°C / 14.4°C 310º 3kt 9700m Mist Vertical Visibility of 0ft. 1008 - KILG 160651Z AUTO 31003KT 6SM BR FEW120 16/14 A2978 RMK AO2 SLP085 T01560144
VFR 17.2°C / 15.6°C variable 0kt >10km - Clear 1009 - KILG 160551Z AUTO 00000KT 10SM CLR 17/16 A2980 RMK AO2 SLP092 T01720156 10194 20172 58017
VFR 17.8°C / 16.1°C variable 0kt >10km - Scattered Clouds 2100ft 1010 - KILG 160451Z AUTO 00000KT 10SM SCT021 18/16 A2983 RMK AO2 SLP102 T01780161 402560161
VFR 17.2°C / 15.6°C 170º 3kt >10km - Few Clouds 3000ft 1010 - KILG 160351Z AUTO 17003KT 10SM FEW030 17/16 A2984 RMK AO2 SLP104 T01720156
VFR 17.8°C / 16.1°C variable 0kt >10km - Few Clouds 3400ft 1011 - KILG 160251Z 00000KT 10SM FEW034 18/16 A2986 RMK AO2 SLP110 T01780161 53012
VFR 18.3°C / 16.1°C 180º 5kt >10km - Clear 1010 - KILG 160151Z 18005KT 10SM CLR 18/16 A2985 RMK AO2 SLP109 T01830161
VFR 18.9°C / 16.7°C 160º 10kt >10km - Clear 1009 - KILG 160051Z 16010KT 10SM CLR 19/17 A2982 RMK AO2 SLP096 T01890167
VFR 19.4°C / 16.7°C 170º 11kt >10km - Clear 1009 - KILG 152351Z 17011KT 10SM CLR 19/17 A2982 RMK AO2 SLP098 T01940167 10256 20194 55000
VFR 23.9°C / 17.8°C 220º 8kt >10km - Clear 1009 - KILG 152251Z 22008KT 10SM CLR 24/18 A2982 RMK AO2 SLP097 T02390178
VFR 25.6°C / 18.9°C 210º 7kt >10km - Scattered Clouds 3000ft 1009 - KILG 152151Z 21007KT 10SM SCT030 26/19 A2982 RMK AO2 SLP097 T02560189
VFR 25°C / 18.3°C 150º 9kt >10km - Few Clouds 2900ft 1009 - KILG 152051Z 15009KT 10SM FEW029 25/18 A2982 RMK AO2 SLP098 T02500183 56028
MVFR 25°C / 18.9°C 170º 8kt >10km - Broken Clouds 3000ft 1010 - KILG 151951Z 17008KT 10SM BKN030 25/19 A2984 RMK AO2 SLP106 T02500189
MVFR 24.4°C / 18.3°C 210º 6kt >10km - Overcast 3000ft - KILG 151907Z 21006KT 10SM OVC030 24/18 A2987 RMK AO2 T02440183
MVFR 24.4°C / 17.8°C 220º 5kt >10km - Broken Clouds 2600ft
Overcast 3100ft
1011 - KILG 151851Z 22005KT 10SM BKN026 OVC031 24/18 A2988 RMK AO2 SLP117 T02440178
MVFR 23.3°C / 17.2°C 220º 7kt >10km - Overcast 2200ft 1012 - KILG 151751Z 22007KT 10SM OVC022 23/17 A2990 RMK AO2 SLP126 T02330172 10233 20178 58010
MVFR 22.2°C / 17.2°C 190º 4kt >10km - Overcast 2100ft 1013 - KILG 151651Z 19004KT 10SM OVC021 22/17 A2992 RMK AO2 SLP131 T02220172
MVFR 21.7°C / 17.2°C 230º 4kt >10km - Overcast 1800ft 1013 - KILG 151551Z 23004KT 10SM OVC018 22/17 A2993 RMK AO2 SLP134 T02170172
MVFR 21.1°C / 17.8°C 250º 5kt >10km - Overcast 1800ft - KILG 151458Z 25005KT 10SM OVC018 21/18 A2993 RMK AO2 T02110178
MVFR 21.1°C / 17.8°C 260º 5kt >10km - Broken Clouds 1300ft
Overcast 2000ft
1013 - KILG 151451Z 26005KT 10SM BKN013 OVC020 21/18 A2993 RMK AO2 SLP136 T02110178 58000
MVFR 21.1°C / 17.8°C 250º 6kt >10km - Broken Clouds 1300ft
Overcast 1900ft
- KILG 151416Z 25006KT 10SM BKN013 OVC019 21/18 A2994 RMK AO2 T02110178
MVFR 20.6°C / 17.8°C 260º 4kt >10km - Few Clouds 800ft
Broken Clouds 1300ft
Overcast 1900ft
- KILG 151358Z 26004KT 10SM FEW008 BKN013 OVC019 21/18 A2994 RMK AO2 T02060178
IFR 20.6°C / 17.2°C 240º 4kt >10km - Broken Clouds 800ft
Broken Clouds 1300ft
Overcast 1900ft
1013 - KILG 151351Z 24004KT 10SM BKN008 BKN013 OVC019 21/17 A2994 RMK AO2 SLP138 T02060172
IFR 18.9°C / 17.8°C 180º 3kt 3200m Mist Vertical Visibility of 0ft.
Overcast 1900ft
- KILG 151258Z 18003KT 2SM BR BKN005 OVC019 19/18 A2994 RMK AO2 T01890178

VFR

16.1°C / 15°C

[Više]
Vetar 180º 3kt
Vidljivost >10km
Prognoza -
Oblaci Few Clouds 12000ft
Pritisak 1008
Promena -
Neobrađeno KILG 160751Z AUTO 18003KT 8SM FEW120 16/15 A2978 RMK AO2 SLP082 T01610150

VFR

15.6°C / 14.4°C

[Više]
Vetar 310º 3kt
Vidljivost 9700m
Prognoza Mist
Oblaci Vertical Visibility of 0ft.
Pritisak 1008
Promena -
Neobrađeno KILG 160651Z AUTO 31003KT 6SM BR FEW120 16/14 A2978 RMK AO2 SLP085 T01560144

VFR

17.2°C / 15.6°C

[Više]
Vetar variable 0kt
Vidljivost >10km
Prognoza -
Oblaci Clear
Pritisak 1009
Promena -
Neobrađeno KILG 160551Z AUTO 00000KT 10SM CLR 17/16 A2980 RMK AO2 SLP092 T01720156 10194 20172 58017

VFR

17.8°C / 16.1°C

[Više]
Vetar variable 0kt
Vidljivost >10km
Prognoza -
Oblaci Scattered Clouds 2100ft
Pritisak 1010
Promena -
Neobrađeno KILG 160451Z AUTO 00000KT 10SM SCT021 18/16 A2983 RMK AO2 SLP102 T01780161 402560161

VFR

17.2°C / 15.6°C

[Više]
Vetar 170º 3kt
Vidljivost >10km
Prognoza -
Oblaci Few Clouds 3000ft
Pritisak 1010
Promena -
Neobrađeno KILG 160351Z AUTO 17003KT 10SM FEW030 17/16 A2984 RMK AO2 SLP104 T01720156

VFR

17.8°C / 16.1°C

[Više]
Vetar variable 0kt
Vidljivost >10km
Prognoza -
Oblaci Few Clouds 3400ft
Pritisak 1011
Promena -
Neobrađeno KILG 160251Z 00000KT 10SM FEW034 18/16 A2986 RMK AO2 SLP110 T01780161 53012

VFR

18.3°C / 16.1°C

[Više]
Vetar 180º 5kt
Vidljivost >10km
Prognoza -
Oblaci Clear
Pritisak 1010
Promena -
Neobrađeno KILG 160151Z 18005KT 10SM CLR 18/16 A2985 RMK AO2 SLP109 T01830161

VFR

18.9°C / 16.7°C

[Više]
Vetar 160º 10kt
Vidljivost >10km
Prognoza -
Oblaci Clear
Pritisak 1009
Promena -
Neobrađeno KILG 160051Z 16010KT 10SM CLR 19/17 A2982 RMK AO2 SLP096 T01890167

VFR

19.4°C / 16.7°C

[Više]
Vetar 170º 11kt
Vidljivost >10km
Prognoza -
Oblaci Clear
Pritisak 1009
Promena -
Neobrađeno KILG 152351Z 17011KT 10SM CLR 19/17 A2982 RMK AO2 SLP098 T01940167 10256 20194 55000

VFR

23.9°C / 17.8°C

[Više]
Vetar 220º 8kt
Vidljivost >10km
Prognoza -
Oblaci Clear
Pritisak 1009
Promena -
Neobrađeno KILG 152251Z 22008KT 10SM CLR 24/18 A2982 RMK AO2 SLP097 T02390178

VFR

25.6°C / 18.9°C

[Više]
Vetar 210º 7kt
Vidljivost >10km
Prognoza -
Oblaci Scattered Clouds 3000ft
Pritisak 1009
Promena -
Neobrađeno KILG 152151Z 21007KT 10SM SCT030 26/19 A2982 RMK AO2 SLP097 T02560189

VFR

25°C / 18.3°C

[Više]
Vetar 150º 9kt
Vidljivost >10km
Prognoza -
Oblaci Few Clouds 2900ft
Pritisak 1009
Promena -
Neobrađeno KILG 152051Z 15009KT 10SM FEW029 25/18 A2982 RMK AO2 SLP098 T02500183 56028

MVFR

25°C / 18.9°C

[Više]
Vetar 170º 8kt
Vidljivost >10km
Prognoza -
Oblaci Broken Clouds 3000ft
Pritisak 1010
Promena -
Neobrađeno KILG 151951Z 17008KT 10SM BKN030 25/19 A2984 RMK AO2 SLP106 T02500189

MVFR

24.4°C / 18.3°C

[Više]
Vetar 210º 6kt
Vidljivost >10km
Prognoza -
Oblaci Overcast 3000ft
Pritisak
Promena -
Neobrađeno KILG 151907Z 21006KT 10SM OVC030 24/18 A2987 RMK AO2 T02440183

MVFR

24.4°C / 17.8°C

[Više]
Vetar 220º 5kt
Vidljivost >10km
Prognoza -
Oblaci Broken Clouds 2600ft
Overcast 3100ft
Pritisak 1011
Promena -
Neobrađeno KILG 151851Z 22005KT 10SM BKN026 OVC031 24/18 A2988 RMK AO2 SLP117 T02440178

MVFR

23.3°C / 17.2°C

[Više]
Vetar 220º 7kt
Vidljivost >10km
Prognoza -
Oblaci Overcast 2200ft
Pritisak 1012
Promena -
Neobrađeno KILG 151751Z 22007KT 10SM OVC022 23/17 A2990 RMK AO2 SLP126 T02330172 10233 20178 58010

MVFR

22.2°C / 17.2°C

[Više]
Vetar 190º 4kt
Vidljivost >10km
Prognoza -
Oblaci Overcast 2100ft
Pritisak 1013
Promena -
Neobrađeno KILG 151651Z 19004KT 10SM OVC021 22/17 A2992 RMK AO2 SLP131 T02220172

MVFR

21.7°C / 17.2°C

[Više]
Vetar 230º 4kt
Vidljivost >10km
Prognoza -
Oblaci Overcast 1800ft
Pritisak 1013
Promena -
Neobrađeno KILG 151551Z 23004KT 10SM OVC018 22/17 A2993 RMK AO2 SLP134 T02170172

MVFR

21.1°C / 17.8°C

[Više]
Vetar 250º 5kt
Vidljivost >10km
Prognoza -
Oblaci Overcast 1800ft
Pritisak
Promena -
Neobrađeno KILG 151458Z 25005KT 10SM OVC018 21/18 A2993 RMK AO2 T02110178

MVFR

21.1°C / 17.8°C

[Više]
Vetar 260º 5kt
Vidljivost >10km
Prognoza -
Oblaci Broken Clouds 1300ft
Overcast 2000ft
Pritisak 1013
Promena -
Neobrađeno KILG 151451Z 26005KT 10SM BKN013 OVC020 21/18 A2993 RMK AO2 SLP136 T02110178 58000

MVFR

21.1°C / 17.8°C

[Više]
Vetar 250º 6kt
Vidljivost >10km
Prognoza -
Oblaci Broken Clouds 1300ft
Overcast 1900ft
Pritisak
Promena -
Neobrađeno KILG 151416Z 25006KT 10SM BKN013 OVC019 21/18 A2994 RMK AO2 T02110178

MVFR

20.6°C / 17.8°C

[Više]
Vetar 260º 4kt
Vidljivost >10km
Prognoza -
Oblaci Few Clouds 800ft
Broken Clouds 1300ft
Overcast 1900ft
Pritisak
Promena -
Neobrađeno KILG 151358Z 26004KT 10SM FEW008 BKN013 OVC019 21/18 A2994 RMK AO2 T02060178

IFR

20.6°C / 17.2°C

[Više]
Vetar 240º 4kt
Vidljivost >10km
Prognoza -
Oblaci Broken Clouds 800ft
Broken Clouds 1300ft
Overcast 1900ft
Pritisak 1013
Promena -
Neobrađeno KILG 151351Z 24004KT 10SM BKN008 BKN013 OVC019 21/17 A2994 RMK AO2 SLP138 T02060172

IFR

18.9°C / 17.8°C

[Više]
Vetar 180º 3kt
Vidljivost 3200m
Prognoza Mist
Oblaci Vertical Visibility of 0ft.
Overcast 1900ft
Pritisak
Promena -
Neobrađeno KILG 151258Z 18003KT 2SM BR BKN005 OVC019 19/18 A2994 RMK AO2 T01890178

TAF za Wilmington Manor (KILG)

From till


From till Wind variable 3kt. Visibility 10km or more. Broken Clouds 4000ft.
From till Wind variable 3kt. Visibility 8000m. Mist . Broken Clouds 1000ft.
From till Wind variable 3kt. Visibility 3200m. Mist . Broken Clouds 600ft.
From till Wind variable 3kt. Visibility 6400m. Mist . Broken Clouds 1000ft.
From till Wind 200º 10kt. Visibility 10km or more. Showers Rain in the Vicinity Thunderstorm . Broken Clouds 4000ft.
Temporarly from till Visibility 3200m. Thunderstorm Rain Mist . Overcast 1500ft.
From till Wind 260º 10kt. Visibility 10km or more. Broken Clouds 8000ft.

Neobrađeno: KILG 160539Z 1606/1706 VRB03KT P6SM BKN040 FM160700 VRB03KT 5SM BR BKN010 FM160900 VRB03KT 2SM BR BKN006 FM161200 VRB03KT 4SM BR BKN010 FM161600 20010KT P6SM SHRA VCTS BKN040CB TEMPO 1619/1623 2SM TSRA BR OVC015CB FM162300 26010KT P6SM BKN080

Radar i padavine kratka prognoza za Wilmington Manor

Rominjati
Lak
Umjereno
Teška
Vrlo teško
Zdravo

Marker lokacije postavljen je na Wilmington Manor. Ova animacija prikazuje radar padavina za poslednji sat, kao i 1h prognozu. Kiša ili slab snijeg mogu biti nevidljivi za radar. Intenzitet padavina je označen bojom, u rasponu od svetloplave do narandžaste.

Trenutni satelitski snimci za Wilmington Manor, Сједињене Државе

Marker lokacije postavljen je na Wilmington Manor. [Više]

Satelitski snimci u realnom vremenu kombinuju vidljivu svetlost tokom dana sa infracrvenim zračenjem tokom noći. Noću slika nije tamna jer infracrveno zračenje može otkriti temperaturne razlike. Nažalost, niski oblaci i magla teško se mogu razlikovati od temperature zemlje tako da mogu biti skoro nevidljivi tokom noći. Meteosat satelitski snimci za Evropu se ažuriraju u realnom vremenu na svakih 5 minuta. Slnimci GOES-16/GOES-17 (Severna i Južna Amerika) and Himawari (Azia) ažuriraju se na svakih 10 minuta.

Nazad na vrh